sensor_id;sensor_type;location;lat;lon;timestamp;P1;durP1;ratioP1;P2;durP2;ratioP2
19848;SDS011;10085;51.120;6.956;2023-12-20T00:08:16;16.05;;;5.93;;
19848;SDS011;10085;51.120;6.956;2023-12-20T00:18:20;19.52;;;5.03;;
19848;SDS011;10085;51.120;6.956;2023-12-20T00:28:23;14.00;;;3.88;;
19848;SDS011;10085;51.120;6.956;2023-12-20T00:38:27;21.33;;;5.55;;
19848;SDS011;10085;51.120;6.956;2023-12-20T00:48:30;25.25;;;5.55;;
19848;SDS011;10085;51.120;6.956;2023-12-20T00:58:34;14.43;;;3.67;;
19848;SDS011;10085;51.120;6.956;2023-12-20T01:08:37;45.88;;;8.02;;
19848;SDS011;10085;51.120;6.956;2023-12-20T01:18:41;37.60;;;6.85;;
19848;SDS011;10085;51.120;6.956;2023-12-20T01:28:44;38.55;;;7.75;;
19848;SDS011;10085;51.120;6.956;2023-12-20T01:38:48;23.58;;;7.93;;
19848;SDS011;10085;51.120;6.956;2023-12-20T01:48:51;56.20;;;11.52;;
19848;SDS011;10085;51.120;6.956;2023-12-20T01:58:55;68.28;;;14.90;;
19848;SDS011;10085;51.120;6.956;2023-12-20T02:08:58;33.20;;;8.77;;
19848;SDS011;10085;51.120;6.956;2023-12-20T02:19:03;27.55;;;7.38;;
19848;SDS011;10085;51.120;6.956;2023-12-20T02:29:08;55.92;;;12.48;;
19848;SDS011;10085;51.120;6.956;2023-12-20T02:39:10;50.17;;;11.48;;
19848;SDS011;10085;51.120;6.956;2023-12-20T02:49:16;29.70;;;7.70;;
19848;SDS011;10085;51.120;6.956;2023-12-20T02:59:19;61.00;;;12.88;;
19848;SDS011;10085;51.120;6.956;2023-12-20T03:09:23;40.55;;;8.98;;
19848;SDS011;10085;51.120;6.956;2023-12-20T03:19:25;56.17;;;10.80;;
19848;SDS011;10085;51.120;6.956;2023-12-20T03:29:30;46.42;;;10.68;;
19848;SDS011;10085;51.120;6.956;2023-12-20T03:39:32;35.22;;;8.55;;
19848;SDS011;10085;51.120;6.956;2023-12-20T03:49:36;36.42;;;8.15;;
19848;SDS011;10085;51.120;6.956;2023-12-20T03:59:40;37.40;;;6.60;;
19848;SDS011;10085;51.120;6.956;2023-12-20T04:09:44;36.75;;;8.45;;
19848;SDS011;10085;51.120;6.956;2023-12-20T04:19:48;26.90;;;6.60;;
19848;SDS011;10085;51.120;6.956;2023-12-20T04:29:52;23.05;;;6.47;;
19848;SDS011;10085;51.120;6.956;2023-12-20T04:39:55;35.15;;;7.20;;
19848;SDS011;10085;51.120;6.956;2023-12-20T04:49:59;36.97;;;8.43;;
19848;SDS011;10085;51.120;6.956;2023-12-20T05:00:04;15.95;;;5.32;;
19848;SDS011;10085;51.120;6.956;2023-12-20T05:10:11;38.03;;;7.28;;
19848;SDS011;10085;51.120;6.956;2023-12-20T05:20:13;31.73;;;7.03;;
19848;SDS011;10085;51.120;6.956;2023-12-20T05:30:18;30.02;;;7.05;;
19848;SDS011;10085;51.120;6.956;2023-12-20T05:40:21;13.48;;;5.28;;
19848;SDS011;10085;51.120;6.956;2023-12-20T05:50:25;37.72;;;7.60;;
19848;SDS011;10085;51.120;6.956;2023-12-20T06:00:28;25.10;;;6.20;;
19848;SDS011;10085;51.120;6.956;2023-12-20T06:10:32;29.50;;;7.65;;
19848;SDS011;10085;51.120;6.956;2023-12-20T06:20:35;28.02;;;7.43;;
19848;SDS011;10085;51.120;6.956;2023-12-20T06:30:39;32.22;;;8.07;;
19848;SDS011;10085;51.120;6.956;2023-12-20T06:40:42;34.47;;;6.57;;
19848;SDS011;10085;51.120;6.956;2023-12-20T06:50:46;29.25;;;6.32;;
19848;SDS011;10085;51.120;6.956;2023-12-20T07:00:49;30.45;;;6.50;;
19848;SDS011;10085;51.120;6.956;2023-12-20T07:10:54;22.55;;;5.43;;
19848;SDS011;10085;51.120;6.956;2023-12-20T07:20:57;23.10;;;4.55;;
19848;SDS011;10085;51.120;6.956;2023-12-20T07:31:01;21.27;;;5.18;;
19848;SDS011;10085;51.120;6.956;2023-12-20T07:43:03;22.02;;;3.88;;
19848;SDS011;10085;51.120;6.956;2023-12-20T07:53:06;24.15;;;6.40;;
19848;SDS011;10085;51.120;6.956;2023-12-20T08:03:10;17.85;;;5.15;;
19848;SDS011;10085;51.120;6.956;2023-12-20T08:13:13;27.75;;;6.95;;
19848;SDS011;10085;51.120;6.956;2023-12-20T08:23:17;12.18;;;4.65;;
19848;SDS011;10085;51.120;6.956;2023-12-20T08:33:19;20.55;;;5.47;;
19848;SDS011;10085;51.120;6.956;2023-12-20T08:43:23;23.90;;;7.50;;
19848;SDS011;10085;51.120;6.956;2023-12-20T08:53:26;30.83;;;6.55;;
19848;SDS011;10085;51.120;6.956;2023-12-20T09:03:30;12.90;;;4.78;;
19848;SDS011;10085;51.120;6.956;2023-12-20T09:13:32;21.58;;;7.10;;
19848;SDS011;10085;51.120;6.956;2023-12-20T09:23:36;14.63;;;4.00;;
19848;SDS011;10085;51.120;6.956;2023-12-20T09:33:39;12.65;;;5.03;;
19848;SDS011;10085;51.120;6.956;2023-12-20T09:43:44;21.63;;;4.38;;
19848;SDS011;10085;51.120;6.956;2023-12-20T09:53:46;10.60;;;3.25;;
19848;SDS011;10085;51.120;6.956;2023-12-20T10:03:51;17.42;;;4.05;;
19848;SDS011;10085;51.120;6.956;2023-12-20T10:13:58;13.35;;;2.97;;
19848;SDS011;10085;51.120;6.956;2023-12-20T10:24:02;15.70;;;3.80;;
19848;SDS011;10085;51.120;6.956;2023-12-20T10:34:05;9.48;;;3.05;;
19848;SDS011;10085;51.120;6.956;2023-12-20T10:44:09;4.88;;;2.05;;
19848;SDS011;10085;51.120;6.956;2023-12-20T10:54:13;10.32;;;3.17;;
19848;SDS011;10085;51.120;6.956;2023-12-20T11:04:18;10.82;;;2.58;;
19848;SDS011;10085;51.120;6.956;2023-12-20T11:14:22;14.40;;;3.60;;
19848;SDS011;10085;51.120;6.956;2023-12-20T11:24:27;5.45;;;2.28;;
19848;SDS011;10085;51.120;6.956;2023-12-20T11:34:31;11.38;;;3.83;;
19848;SDS011;10085;51.120;6.956;2023-12-20T11:44:35;11.50;;;3.60;;
19848;SDS011;10085;51.120;6.956;2023-12-20T11:54:38;12.23;;;4.35;;
19848;SDS011;10085;51.120;6.956;2023-12-20T12:04:42;14.07;;;3.45;;
19848;SDS011;10085;51.120;6.956;2023-12-20T12:14:45;8.25;;;3.17;;
19848;SDS011;10085;51.120;6.956;2023-12-20T12:24:49;8.90;;;3.92;;
19848;SDS011;10085;51.120;6.956;2023-12-20T12:34:52;15.25;;;4.80;;
19848;SDS011;10085;51.120;6.956;2023-12-20T12:44:56;12.10;;;3.60;;
19848;SDS011;10085;51.120;6.956;2023-12-20T12:54:58;10.20;;;3.90;;
19848;SDS011;10085;51.120;6.956;2023-12-20T13:05:02;10.15;;;4.32;;
19848;SDS011;10085;51.120;6.956;2023-12-20T13:15:06;13.60;;;4.70;;
19848;SDS011;10085;51.120;6.956;2023-12-20T13:25:11;11.70;;;4.18;;
19848;SDS011;10085;51.120;6.956;2023-12-20T13:35:14;13.65;;;4.68;;
19848;SDS011;10085;51.120;6.956;2023-12-20T13:45:18;16.02;;;5.30;;
19848;SDS011;10085;51.120;6.956;2023-12-20T13:55:21;12.70;;;5.45;;
19848;SDS011;10085;51.120;6.956;2023-12-20T14:05:28;14.90;;;5.43;;
19848;SDS011;10085;51.120;6.956;2023-12-20T14:15:31;10.50;;;4.50;;
19848;SDS011;10085;51.120;6.956;2023-12-20T14:25:39;14.80;;;5.00;;
19848;SDS011;10085;51.120;6.956;2023-12-20T14:35:52;13.68;;;5.30;;
19848;SDS011;10085;51.120;6.956;2023-12-20T14:45:56;9.07;;;3.90;;
19848;SDS011;10085;51.120;6.956;2023-12-20T14:55:59;14.95;;;5.45;;
19848;SDS011;10085;51.120;6.956;2023-12-20T15:06:03;16.42;;;5.30;;
19848;SDS011;10085;51.120;6.956;2023-12-20T15:16:06;10.30;;;4.30;;
19848;SDS011;10085;51.120;6.956;2023-12-20T15:26:10;10.40;;;4.88;;
19848;SDS011;10085;51.120;6.956;2023-12-20T15:36:13;13.48;;;5.85;;
19848;SDS011;10085;51.120;6.956;2023-12-20T15:46:17;15.10;;;6.47;;
19848;SDS011;10085;51.120;6.956;2023-12-20T15:56:20;23.88;;;6.53;;
19848;SDS011;10085;51.120;6.956;2023-12-20T16:06:24;17.23;;;4.93;;
19848;SDS011;10085;51.120;6.956;2023-12-20T16:16:27;12.35;;;4.70;;
19848;SDS011;10085;51.120;6.956;2023-12-20T16:26:31;12.65;;;4.03;;
19848;SDS011;10085;51.120;6.956;2023-12-20T16:36:49;20.92;;;5.60;;
19848;SDS011;10085;51.120;6.956;2023-12-20T16:47:01;13.70;;;4.13;;
19848;SDS011;10085;51.120;6.956;2023-12-20T16:57:06;20.05;;;5.65;;
19848;SDS011;10085;51.120;6.956;2023-12-20T17:07:10;19.25;;;6.78;;
19848;SDS011;10085;51.120;6.956;2023-12-20T17:17:13;11.13;;;5.13;;
19848;SDS011;10085;51.120;6.956;2023-12-20T17:27:17;18.17;;;5.63;;
19848;SDS011;10085;51.120;6.956;2023-12-20T17:37:19;14.60;;;5.65;;
19848;SDS011;10085;51.120;6.956;2023-12-20T17:47:23;15.63;;;5.53;;
19848;SDS011;10085;51.120;6.956;2023-12-20T17:57:26;14.80;;;5.15;;
19848;SDS011;10085;51.120;6.956;2023-12-20T18:07:30;9.38;;;4.63;;
19848;SDS011;10085;51.120;6.956;2023-12-20T18:17:33;14.98;;;4.85;;
19848;SDS011;10085;51.120;6.956;2023-12-20T18:27:37;11.40;;;4.25;;
19848;SDS011;10085;51.120;6.956;2023-12-20T18:37:39;10.75;;;4.75;;
19848;SDS011;10085;51.120;6.956;2023-12-20T18:47:43;11.70;;;4.47;;
19848;SDS011;10085;51.120;6.956;2023-12-20T18:57:47;12.80;;;4.70;;
19848;SDS011;10085;51.120;6.956;2023-12-20T19:07:51;14.18;;;4.55;;
19848;SDS011;10085;51.120;6.956;2023-12-20T19:17:55;12.80;;;5.13;;
19848;SDS011;10085;51.120;6.956;2023-12-20T19:27:59;11.88;;;4.18;;
19848;SDS011;10085;51.120;6.956;2023-12-20T19:38:02;11.95;;;5.22;;
19848;SDS011;10085;51.120;6.956;2023-12-20T19:48:06;9.98;;;4.55;;
19848;SDS011;10085;51.120;6.956;2023-12-20T19:58:09;13.07;;;4.35;;
19848;SDS011;10085;51.120;6.956;2023-12-20T20:08:13;11.27;;;4.25;;
19848;SDS011;10085;51.120;6.956;2023-12-20T20:18:15;13.50;;;5.07;;
19848;SDS011;10085;51.120;6.956;2023-12-20T20:28:21;10.85;;;4.57;;
19848;SDS011;10085;51.120;6.956;2023-12-20T20:38:26;7.60;;;3.28;;
19848;SDS011;10085;51.120;6.956;2023-12-20T20:48:30;11.60;;;4.75;;
19848;SDS011;10085;51.120;6.956;2023-12-20T20:58:44;12.60;;;4.40;;
19848;SDS011;10085;51.120;6.956;2023-12-20T21:08:49;11.02;;;4.72;;
19848;SDS011;10085;51.120;6.956;2023-12-20T21:18:52;7.40;;;3.75;;
19848;SDS011;10085;51.120;6.956;2023-12-20T21:28:56;8.20;;;4.10;;
19848;SDS011;10085;51.120;6.956;2023-12-20T21:38:58;11.48;;;4.85;;
19848;SDS011;10085;51.120;6.956;2023-12-20T21:49:02;12.45;;;4.80;;
19848;SDS011;10085;51.120;6.956;2023-12-20T21:59:05;18.48;;;6.32;;
19848;SDS011;10085;51.120;6.956;2023-12-20T22:09:09;12.77;;;5.97;;
19848;SDS011;10085;51.120;6.956;2023-12-20T22:19:12;14.77;;;4.97;;
19848;SDS011;10085;51.120;6.956;2023-12-20T22:29:16;14.45;;;4.95;;
19848;SDS011;10085;51.120;6.956;2023-12-20T22:39:18;15.13;;;5.57;;
19848;SDS011;10085;51.120;6.956;2023-12-20T22:49:22;10.10;;;4.65;;
19848;SDS011;10085;51.120;6.956;2023-12-20T22:59:25;14.15;;;6.30;;
19848;SDS011;10085;51.120;6.956;2023-12-20T23:09:29;15.43;;;5.53;;
